createdAt,value
2022-10-04T00:02:26.570Z,100273.91
2022-10-04T00:05:01.335Z,100275.03
2022-10-04T00:07:34.910Z,100276.13
2022-10-04T00:10:08.761Z,100263.34
2022-10-04T00:12:41.779Z,100271.59
2022-10-04T00:15:27.197Z,100276.78
2022-10-04T00:18:06.561Z,100284.06
2022-10-04T00:21:01.321Z,100271.72
2022-10-04T00:23:46.285Z,100278.84
2022-10-04T00:26:59.416Z,100276.31
2022-10-04T00:29:34.098Z,100271.72
2022-10-04T00:32:28.634Z,100268.09
2022-10-04T00:34:57.625Z,100278.97
2022-10-04T00:37:27.197Z,100272.81
2022-10-04T00:40:05.974Z,100270.91
2022-10-04T00:42:53.978Z,100278.66
2022-10-04T00:45:32.081Z,100267.94
2022-10-04T00:48:30.339Z,100270.00
2022-10-04T00:51:05.758Z,100267.31
2022-10-04T00:53:42.874Z,100269.69
2022-10-04T00:56:16.558Z,100270.47
2022-10-04T00:58:52.323Z,100277.06
2022-10-04T01:01:25.119Z,100285.91
2022-10-04T01:03:56.659Z,100285.91
2022-10-04T01:06:26.501Z,100286.06
2022-10-04T01:08:57.275Z,100288.91
2022-10-04T01:11:30.686Z,100289.09
2022-10-04T01:14:01.032Z,100279.94
2022-10-04T01:16:30.634Z,100283.53
2022-10-04T01:19:27.210Z,100284.47
2022-10-04T01:22:01.079Z,100283.81
2022-10-04T01:24:35.900Z,100286.84
2022-10-04T01:27:05.007Z,100286.19
2022-10-04T01:29:33.546Z,100280.34
2022-10-04T01:32:03.026Z,100281.00
2022-10-04T01:34:31.886Z,100285.59
2022-10-04T01:37:01.580Z,100279.44
2022-10-04T01:39:32.383Z,100283.50
2022-10-04T01:42:06.383Z,100276.72
2022-10-04T01:44:40.437Z,100277.53
2022-10-04T01:47:14.327Z,100271.97
2022-10-04T01:49:45.308Z,100276.09
2022-10-04T01:52:19.583Z,100277.16
2022-10-04T01:54:53.136Z,100272.75
2022-10-04T01:57:25.234Z,100279.06
2022-10-04T01:59:58.858Z,100277.31
2022-10-04T02:02:32.131Z,100284.53
2022-10-04T02:05:01.553Z,100295.56
2022-10-04T02:07:33.659Z,100304.22
2022-10-04T02:10:06.602Z,100301.91
2022-10-04T02:12:36.462Z,100301.75
2022-10-04T02:15:08.539Z,100307.00
2022-10-04T02:17:43.221Z,100318.34
2022-10-04T02:20:17.284Z,100313.44
2022-10-04T02:22:47.657Z,100313.09
2022-10-04T02:25:21.173Z,100328.06
2022-10-04T02:27:53.133Z,100326.28
2022-10-04T02:30:21.832Z,100321.91
2022-10-04T02:32:59.814Z,100319.69
2022-10-04T02:35:31.125Z,100321.75
2022-10-04T02:38:10.171Z,100309.94
2022-10-04T02:40:46.552Z,100312.31
2022-10-04T02:43:20.996Z,100318.97
2022-10-04T02:45:54.107Z,100321.63
2022-10-04T02:48:36.866Z,100323.81
2022-10-04T02:51:19.489Z,100321.56
2022-10-04T02:54:03.174Z,100326.09
2022-10-04T02:56:34.645Z,100320.09
2022-10-04T02:59:04.757Z,100327.00
2022-10-04T03:01:50.603Z,100319.38
2022-10-04T03:04:21.184Z,100328.81
2022-10-04T03:06:49.641Z,100335.59
2022-10-04T03:09:22.017Z,100338.88
2022-10-04T03:11:53.995Z,100338.56
2022-10-04T03:14:26.147Z,100341.09
2022-10-04T03:17:00.702Z,100345.69
2022-10-04T03:19:31.605Z,100348.97
2022-10-04T03:22:03.746Z,100344.09
2022-10-04T03:24:34.530Z,100349.38
2022-10-04T03:27:07.809Z,100344.00
2022-10-04T03:29:36.633Z,100349.22
2022-10-04T03:32:06.410Z,100353.81
2022-10-04T03:34:37.377Z,100359.84
2022-10-04T03:37:11.192Z,100369.13
2022-10-04T03:39:43.567Z,100367.38
2022-10-04T03:42:16.927Z,100366.91
2022-10-04T03:44:46.808Z,100371.66
2022-10-04T03:47:20.797Z,100364.84
2022-10-04T03:49:51.244Z,100368.59
2022-10-04T03:52:22.866Z,100375.09
2022-10-04T03:54:53.451Z,100373.50
2022-10-04T03:57:23.864Z,100377.22
2022-10-04T03:59:52.905Z,100376.25
2022-10-04T04:02:31.222Z,100390.25
2022-10-04T04:05:08.954Z,100388.41
2022-10-04T04:07:44.265Z,100390.16
2022-10-04T04:10:21.250Z,100392.63
2022-10-04T04:12:56.394Z,100399.91
2022-10-04T04:15:29.841Z,100398.00
2022-10-04T04:18:02.181Z,100398.81
2022-10-04T04:20:34.197Z,100407.81
2022-10-04T04:23:06.832Z,100407.94
2022-10-04T04:25:39.179Z,100420.09
2022-10-04T04:28:27.456Z,100411.19
2022-10-04T04:31:01.631Z,100413.44
2022-10-04T04:33:32.691Z,100417.59
2022-10-04T04:36:06.432Z,100411.31
2022-10-04T04:38:35.563Z,100418.13
2022-10-04T04:41:11.763Z,100427.94
2022-10-04T04:43:44.793Z,100430.00
2022-10-04T04:46:27.243Z,100431.19
2022-10-04T04:49:02.059Z,100425.81
2022-10-04T04:51:32.679Z,100431.88
2022-10-04T04:54:03.711Z,100448.47
2022-10-04T04:56:32.373Z,100454.31
2022-10-04T04:59:04.944Z,100450.66
2022-10-04T05:01:36.540Z,100451.63
2022-10-04T05:04:06.994Z,100465.56
2022-10-04T05:06:36.975Z,100464.91
2022-10-04T05:09:06.745Z,100465.59
2022-10-04T05:11:37.677Z,100472.28
2022-10-04T05:14:10.606Z,100472.50
2022-10-04T05:16:43.958Z,100483.13
2022-10-04T05:19:17.605Z,100488.34
2022-10-04T05:21:48.603Z,100491.75
2022-10-04T05:24:22.884Z,100493.78
2022-10-04T05:26:53.754Z,100496.19
2022-10-04T05:29:27.708Z,100487.03
2022-10-04T05:32:17.088Z,100485.75
2022-10-04T05:34:50.255Z,100496.16
2022-10-04T05:37:31.209Z,100498.06
2022-10-04T05:40:11.109Z,100508.34
2022-10-04T05:42:45.630Z,100521.47
2022-10-04T05:45:19.875Z,100526.38
2022-10-04T05:47:50.947Z,100524.75
2022-10-04T05:50:24.379Z,100540.09
2022-10-04T05:52:53.654Z,100549.13
2022-10-04T05:55:34.346Z,100552.59
2022-10-04T05:58:31.503Z,100560.78
2022-10-04T06:01:24.926Z,100574.34
2022-10-04T06:04:19.157Z,100582.72
2022-10-04T06:06:52.509Z,100581.41
2022-10-04T06:09:38.392Z,100588.34
2022-10-04T06:12:13.599Z,100586.69
2022-10-04T06:15:08.750Z,100597.56
2022-10-04T06:17:56.277Z,100601.50
2022-10-04T06:21:15.989Z,100602.63
2022-10-04T06:23:51.369Z,100602.50
2022-10-04T06:26:25.289Z,100611.16
2022-10-04T06:28:57.719Z,100608.34
2022-10-04T06:31:48.211Z,100614.16
2022-10-04T06:34:44.299Z,100617.16
2022-10-04T06:37:39.914Z,100616.69
2022-10-04T06:40:38.739Z,100612.41
2022-10-04T06:43:23.473Z,100609.41
2022-10-04T06:46:09.173Z,100611.69
2022-10-04T06:48:55.568Z,100606.50
2022-10-04T06:51:41.905Z,100605.72
2022-10-04T06:54:28.166Z,100611.88
2022-10-04T06:57:19.076Z,100606.19
2022-10-04T07:00:06.438Z,100610.22
2022-10-04T07:02:41.448Z,100615.28
2022-10-04T07:05:19.216Z,100611.09
2022-10-04T07:08:06.808Z,100620.50
2022-10-04T07:10:42.104Z,100620.06
2022-10-04T07:13:24.667Z,100622.50
2022-10-04T07:15:58.417Z,100614.09
2022-10-04T07:18:35.613Z,100632.88
2022-10-04T07:21:09.114Z,100625.44
2022-10-04T07:23:45.716Z,100635.41
2022-10-04T07:26:24.346Z,100634.22
2022-10-04T07:29:12.778Z,100637.88
2022-10-04T07:31:44.231Z,100652.97
2022-10-04T07:34:18.540Z,100646.84
2022-10-04T07:36:51.176Z,100641.47
2022-10-04T07:39:26.057Z,100648.44
2022-10-04T07:41:56.402Z,100652.91
2022-10-04T07:44:35.638Z,100658.91
2022-10-04T07:47:14.787Z,100653.94
2022-10-04T07:49:43.250Z,100652.09
2022-10-04T07:52:26.736Z,100660.09
2022-10-04T07:55:05.611Z,100654.56
2022-10-04T07:57:47.535Z,100660.53
2022-10-04T08:00:20.526Z,100650.50
2022-10-04T08:03:06.339Z,100664.66
2022-10-04T08:05:38.331Z,100663.72
2022-10-04T08:08:30.982Z,100677.44
2022-10-04T08:11:17.362Z,100660.69
2022-10-04T08:13:59.786Z,100666.25
2022-10-04T08:16:37.074Z,100673.06
2022-10-04T08:19:25.702Z,100670.03
2022-10-04T08:22:01.632Z,100672.63
2022-10-04T08:24:36.951Z,100678.25
2022-10-04T08:27:27.544Z,100676.13
2022-10-04T08:30:04.860Z,100679.03
2022-10-04T08:32:54.892Z,100679.16
2022-10-04T08:35:36.277Z,100681.88
2022-10-04T08:38:27.249Z,100684.69
2022-10-04T08:41:38.201Z,100695.41
2022-10-04T08:44:52.754Z,100680.25
2022-10-04T08:48:11.209Z,100691.09
2022-10-04T08:51:23.726Z,100698.53
2022-10-04T08:54:26.382Z,100702.03
2022-10-04T08:57:06.025Z,100699.41
2022-10-04T09:00:06.148Z,100699.69
2022-10-04T09:02:59.103Z,100701.31
2022-10-04T09:05:40.080Z,100698.38
2022-10-04T09:08:50.166Z,100711.47
2022-10-04T09:11:33.750Z,100706.44
2022-10-04T09:14:21.246Z,100707.28
2022-10-04T09:17:00.937Z,100700.09
2022-10-04T09:19:46.135Z,100714.19
2022-10-04T09:22:20.226Z,100722.44
2022-10-04T09:25:31.385Z,100724.47
2022-10-04T09:28:44.140Z,100730.31
2022-10-04T09:31:34.620Z,100724.78
2022-10-04T09:34:25.794Z,100739.06
2022-10-04T09:37:14.258Z,100732.84
2022-10-04T09:40:01.045Z,100735.59
2022-10-04T09:42:54.563Z,100736.28
2022-10-04T09:45:53.683Z,100741.31
2022-10-04T09:48:30.443Z,100745.03
2022-10-04T09:51:42.080Z,100747.97
2022-10-04T09:54:35.126Z,100751.66
2022-10-04T09:57:21.567Z,100741.03
2022-10-04T10:00:09.882Z,100745.81
2022-10-04T10:03:30.424Z,100738.06
2022-10-04T10:06:23.835Z,100738.19
2022-10-04T10:09:10.687Z,100740.34
2022-10-04T10:12:06.746Z,100740.00
2022-10-04T10:14:57.165Z,100753.56
2022-10-04T10:17:37.345Z,100748.66
2022-10-04T10:20:31.608Z,100752.03
2022-10-04T10:23:14.040Z,100747.19
2022-10-04T10:25:54.983Z,100752.13
2022-10-04T10:28:42.291Z,100753.84
2022-10-04T10:31:31.621Z,100747.53
2022-10-04T10:34:21.189Z,100757.41
2022-10-04T10:37:09.110Z,100752.13
2022-10-04T10:40:21.049Z,100762.38
2022-10-04T10:43:14.521Z,100758.72
2022-10-04T10:46:11.818Z,100762.53
2022-10-04T10:48:57.059Z,100762.00
2022-10-04T10:51:55.947Z,100762.59
2022-10-04T10:55:08.284Z,100764.19
2022-10-04T10:58:13.620Z,100761.00
2022-10-04T11:00:54.902Z,100763.19
2022-10-04T11:04:01.925Z,100768.47
2022-10-04T11:07:05.486Z,100764.19
2022-10-04T11:09:47.910Z,100773.25
2022-10-04T11:12:55.833Z,100766.59
2022-10-04T11:16:08.785Z,100771.69
2022-10-04T11:19:19.150Z,100774.81
2022-10-04T11:22:33.700Z,100772.84
2022-10-04T11:25:43.621Z,100778.06
2022-10-04T11:28:19.070Z,100777.50
2022-10-04T11:31:17.554Z,100777.81
2022-10-04T11:34:17.889Z,100775.88
2022-10-04T11:37:06.375Z,100773.34
2022-10-04T11:40:09.379Z,100779.28
2022-10-04T11:42:58.292Z,100775.56
2022-10-04T11:45:40.230Z,100785.00
2022-10-04T11:48:21.591Z,100783.38
2022-10-04T11:51:12.676Z,100782.31
2022-10-04T11:54:04.663Z,100796.22
2022-10-04T11:56:43.597Z,100784.59
2022-10-04T11:59:27.577Z,100786.50
2022-10-04T12:02:41.315Z,100784.69
2022-10-04T12:05:27.469Z,100787.00
2022-10-04T12:08:12.063Z,100783.44
2022-10-04T12:10:41.730Z,100789.44
2022-10-04T12:13:40.608Z,100790.88
2022-10-04T12:16:44.635Z,100792.19
2022-10-04T12:19:42.608Z,100794.63
2022-10-04T12:22:45.211Z,100794.28
2022-10-04T12:25:48.569Z,100798.31
2022-10-04T12:28:34.762Z,100800.53
2022-10-04T12:31:17.616Z,100795.50
2022-10-04T12:33:54.208Z,100787.69
2022-10-04T12:36:43.933Z,100794.78
2022-10-04T12:39:28.516Z,100796.19
2022-10-04T12:42:11.843Z,100804.78
2022-10-04T12:44:56.394Z,100805.47
2022-10-04T12:47:52.861Z,100804.78
2022-10-04T12:50:34.756Z,100800.16
2022-10-04T12:53:15.631Z,100801.75
2022-10-04T12:56:00.635Z,100799.25
2022-10-04T12:58:45.012Z,100806.97
2022-10-04T13:01:23.170Z,100801.53
2022-10-04T13:04:18.013Z,100810.63
2022-10-04T13:06:59.528Z,100818.41
2022-10-04T13:09:59.860Z,100814.22
2022-10-04T13:13:04.403Z,100807.44
2022-10-04T13:18:37.283Z,100818.50
2022-10-04T13:21:08.021Z,100816.09
2022-10-04T13:23:54.051Z,100821.31
2022-10-04T13:26:39.494Z,100825.97
2022-10-04T13:29:20.957Z,100820.25
2022-10-04T13:31:54.092Z,100819.44
2022-10-04T13:34:32.981Z,100815.72
2022-10-04T13:37:21.293Z,100823.84
2022-10-04T13:40:16.005Z,100820.03
2022-10-04T13:43:01.205Z,100815.16
2022-10-04T13:45:39.341Z,100820.25
2022-10-04T13:48:28.131Z,100822.59
2022-10-04T13:51:20.583Z,100822.25
2022-10-04T13:54:16.047Z,100827.13
2022-10-04T13:56:58.615Z,100822.63
2022-10-04T13:59:36.735Z,100827.81
2022-10-04T14:02:31.363Z,100826.94
2022-10-04T14:05:39.056Z,100826.94
2022-10-04T14:08:36.840Z,100842.13
2022-10-04T14:11:39.275Z,100840.00
2022-10-04T14:14:48.132Z,100842.13
2022-10-04T14:18:01.502Z,100852.84
2022-10-04T14:21:06.812Z,100852.72
2022-10-04T14:24:19.507Z,100855.53
2022-10-04T14:27:24.111Z,100846.03
2022-10-04T14:30:19.987Z,100857.09
2022-10-04T14:33:34.288Z,100860.59
2022-10-04T14:36:25.012Z,100864.34
2022-10-04T14:39:19.312Z,100873.38
2022-10-04T14:42:16.295Z,100875.19
2022-10-04T14:45:19.775Z,100881.78
2022-10-04T14:48:20.024Z,100870.38
2022-10-04T14:51:10.611Z,100877.47
2022-10-04T14:53:50.451Z,100875.00
2022-10-04T14:56:44.497Z,100879.63
2022-10-04T14:59:43.428Z,100886.66
2022-10-04T15:02:49.513Z,100886.97
2022-10-04T15:05:44.322Z,100891.28
2022-10-04T15:09:08.330Z,100896.88
2022-10-04T15:11:44.370Z,100892.47
2022-10-04T15:14:32.727Z,100905.69
2022-10-04T15:17:02.828Z,100906.81
2022-10-04T15:19:34.838Z,100901.59
2022-10-04T15:22:12.508Z,100903.38
2022-10-04T15:24:49.834Z,100910.50
2022-10-04T15:27:44.436Z,100917.31
2022-10-04T15:30:22.379Z,100919.53
2022-10-04T15:33:07.929Z,100919.88
2022-10-04T15:35:42.878Z,100925.56
2022-10-04T15:38:27.418Z,100927.94
2022-10-04T15:41:04.173Z,100933.34
2022-10-04T15:43:42.809Z,100933.19
2022-10-04T15:46:32.785Z,100942.03
2022-10-04T15:49:25.095Z,100940.59
2022-10-04T15:52:12.282Z,100942.34
2022-10-04T15:55:04.835Z,100942.50
2022-10-04T15:57:42.533Z,100951.22
2022-10-04T16:00:15.297Z,100952.81
2022-10-04T16:03:03.541Z,100956.59
2022-10-04T16:05:37.633Z,100960.06
2022-10-04T16:08:40.409Z,100965.59
2022-10-04T16:11:33.253Z,100971.28
2022-10-04T16:14:35.403Z,100971.44
2022-10-04T16:17:38.715Z,100973.84
2022-10-04T16:20:40.750Z,100982.22
2022-10-04T16:23:31.627Z,100976.06
2022-10-04T16:26:02.203Z,100979.84
2022-10-04T16:28:57.103Z,100985.56
2022-10-04T16:31:39.629Z,100987.47
2022-10-04T16:34:29.273Z,100994.09
2022-10-04T16:37:05.258Z,100999.09
2022-10-04T16:39:55.848Z,101007.13
2022-10-04T16:42:29.296Z,101008.38
2022-10-04T16:45:03.238Z,101018.00
2022-10-04T16:47:35.039Z,101014.63
2022-10-04T16:50:05.181Z,101020.78
2022-10-04T16:53:00.773Z,101021.72
2022-10-04T16:55:52.307Z,101017.25
2022-10-04T16:58:57.148Z,101021.78
2022-10-04T17:01:58.405Z,101023.97
2022-10-04T17:04:55.742Z,101019.19
2022-10-04T17:07:35.020Z,101027.88
2022-10-04T17:10:20.371Z,101029.41
2022-10-04T17:12:56.869Z,101028.44
2022-10-04T17:15:49.909Z,101030.81
2022-10-04T17:18:31.496Z,101036.63
2022-10-04T17:21:06.262Z,101037.06
2022-10-04T17:24:19.504Z,101035.38
2022-10-04T17:27:05.653Z,101038.84
2022-10-04T17:29:48.664Z,101048.53
2022-10-04T17:32:26.369Z,101041.25
2022-10-04T17:35:14.029Z,101047.31
2022-10-04T17:37:54.425Z,101051.16
2022-10-04T17:40:34.623Z,101051.22
2022-10-04T17:43:08.551Z,101060.50
2022-10-04T17:45:58.672Z,101063.19
2022-10-04T17:48:48.100Z,101066.97
2022-10-04T17:51:56.724Z,101069.03
2022-10-04T17:54:48.217Z,101072.94
2022-10-04T17:57:30.910Z,101072.88
2022-10-04T18:00:09.619Z,101078.56
2022-10-04T18:03:04.266Z,101080.13
2022-10-04T18:05:37.387Z,101087.19
2022-10-04T18:08:14.057Z,101091.09
2022-10-04T18:10:51.654Z,101090.72
2022-10-04T18:13:27.246Z,101091.81
2022-10-04T18:16:02.630Z,101101.25
2022-10-04T18:18:39.040Z,101101.63
2022-10-04T18:21:20.478Z,101100.22
2022-10-04T18:23:59.555Z,101108.53
2022-10-04T18:26:31.731Z,101108.03
2022-10-04T18:29:02.638Z,101112.22
2022-10-04T18:31:37.652Z,101118.56
2022-10-04T18:34:29.454Z,101116.88
2022-10-04T18:37:06.999Z,101119.69
2022-10-04T18:39:49.578Z,101124.75
2022-10-04T18:42:27.030Z,101122.47
2022-10-04T18:45:00.507Z,101127.34
2022-10-04T18:47:35.911Z,101128.69
2022-10-04T18:50:17.181Z,101130.69
2022-10-04T18:53:04.326Z,101128.22
2022-10-04T18:55:42.432Z,101130.38
2022-10-04T18:58:44.009Z,101138.03
2022-10-04T19:01:54.055Z,101144.56
2022-10-04T19:04:27.632Z,101148.38
2022-10-04T19:07:03.145Z,101146.28
2022-10-04T19:09:45.311Z,101145.28
2022-10-04T19:12:17.441Z,101153.53
2022-10-04T19:14:56.486Z,101149.56
2022-10-04T19:17:29.539Z,101148.91
2022-10-04T19:20:04.010Z,101149.00
2022-10-04T19:22:46.711Z,101157.34
2022-10-04T19:25:57.269Z,101159.56
2022-10-04T19:28:34.774Z,101157.34
2022-10-04T19:31:13.846Z,101164.41
2022-10-04T19:33:50.232Z,101162.22
2022-10-04T19:36:46.584Z,101171.66
2022-10-04T19:39:32.121Z,101171.88
2022-10-04T19:42:03.522Z,101179.50
2022-10-04T19:44:43.391Z,101189.66
2022-10-04T19:47:42.407Z,101186.97
2022-10-04T19:50:21.234Z,101190.47
2022-10-04T19:52:53.578Z,101185.09
2022-10-04T19:55:26.391Z,101197.72
2022-10-04T19:58:04.780Z,101192.25
2022-10-04T20:00:35.766Z,101199.44
2022-10-04T20:03:12.839Z,101198.72
2022-10-04T20:05:46.119Z,101203.28
2022-10-04T20:08:16.024Z,101202.50
2022-10-04T20:10:44.868Z,101210.28
2022-10-04T20:13:24.292Z,101205.00
2022-10-04T20:15:54.709Z,101205.00
2022-10-04T20:19:02.425Z,101204.31
2022-10-04T20:21:32.909Z,101208.41
2022-10-04T20:24:01.820Z,101205.81
2022-10-04T20:27:00.341Z,101207.78
2022-10-04T20:30:06.468Z,101207.59
2022-10-04T20:33:02.607Z,101214.91
2022-10-04T20:36:08.558Z,101224.03
2022-10-04T20:38:49.930Z,101211.16
2022-10-04T20:42:04.280Z,101208.91
2022-10-04T20:44:43.799Z,101213.88
2022-10-04T20:47:21.707Z,101213.97
2022-10-04T20:49:50.044Z,101219.56
2022-10-04T20:52:19.453Z,101221.06
2022-10-04T20:54:53.529Z,101226.16
2022-10-04T20:57:23.970Z,101222.38
2022-10-04T20:59:55.656Z,101222.28
2022-10-04T21:02:25.257Z,101225.50
2022-10-04T21:04:54.006Z,101224.63
2022-10-04T21:07:23.790Z,101224.91
2022-10-04T21:09:54.807Z,101224.22
2022-10-04T21:12:31.706Z,101227.16
2022-10-04T21:15:05.131Z,101226.34
2022-10-04T21:17:41.265Z,101223.34
2022-10-04T21:20:15.912Z,101226.28
2022-10-04T21:22:44.799Z,101231.94
2022-10-04T21:25:44.128Z,101226.63
2022-10-04T21:28:26.793Z,101232.28
2022-10-04T21:30:54.874Z,101230.41
2022-10-04T21:33:23.008Z,101230.13
2022-10-04T21:35:52.418Z,101233.41
2022-10-04T21:38:20.961Z,101229.16
2022-10-04T21:40:50.444Z,101231.94
2022-10-04T21:43:18.566Z,101220.38
2022-10-04T21:45:46.839Z,101225.94
2022-10-04T21:48:14.997Z,101230.16
2022-10-04T21:50:43.733Z,101233.31
2022-10-04T21:53:11.854Z,101235.72
2022-10-04T21:55:39.923Z,101236.38
2022-10-04T21:58:09.386Z,101232.97
2022-10-04T22:00:37.561Z,101241.97
2022-10-04T22:03:05.891Z,101243.38
2022-10-04T22:05:33.984Z,101236.88
2022-10-04T22:08:02.118Z,101243.28
2022-10-04T22:10:31.187Z,101247.41
2022-10-04T22:12:59.259Z,101242.44
2022-10-04T22:15:29.713Z,101246.44
2022-10-04T22:17:58.113Z,101241.78
2022-10-04T22:20:26.545Z,101246.06
2022-10-04T22:22:56.047Z,101240.91
2022-10-04T22:25:25.252Z,101255.66
2022-10-04T22:27:53.963Z,101249.25
2022-10-04T22:30:25.458Z,101243.66
2022-10-04T22:32:56.834Z,101248.06
2022-10-04T22:35:25.057Z,101245.44
2022-10-04T22:37:53.565Z,101247.72
2022-10-04T22:40:23.112Z,101239.28
2022-10-04T22:42:53.364Z,101249.44
2022-10-04T22:45:24.291Z,101253.78
2022-10-04T22:47:53.548Z,101248.06
2022-10-04T22:50:38.198Z,101248.44
2022-10-04T22:53:13.318Z,101246.00
2022-10-04T22:55:41.788Z,101242.22
2022-10-04T22:58:14.558Z,101248.69
2022-10-04T23:00:43.067Z,101255.56
2022-10-04T23:03:28.972Z,101256.66
2022-10-04T23:05:58.702Z,101256.06
2022-10-04T23:08:26.806Z,101254.47
2022-10-04T23:10:56.680Z,101253.38
2022-10-04T23:13:25.582Z,101264.63
2022-10-04T23:15:57.243Z,101262.16
2022-10-04T23:18:25.460Z,101253.19
2022-10-04T23:21:03.440Z,101249.22
2022-10-04T23:23:32.728Z,101258.09
2022-10-04T23:26:00.869Z,101261.25
2022-10-04T23:28:29.075Z,101257.19
2022-10-04T23:31:06.158Z,101254.50
2022-10-04T23:33:34.302Z,101260.78
2022-10-04T23:36:03.853Z,101258.75
2022-10-04T23:38:32.139Z,101262.84
2022-10-04T23:41:00.556Z,101260.34
2022-10-04T23:43:31.809Z,101260.19
2022-10-04T23:46:00.267Z,101258.44
2022-10-04T23:48:32.024Z,101246.78
2022-10-04T23:51:01.157Z,101257.88
2022-10-04T23:53:33.156Z,101261.94
2022-10-04T23:56:05.677Z,101257.75
2022-10-04T23:58:37.700Z,101256.75
